Time;durP1;ratioP1;P1;durP2;ratioP2;P2;SDS_P1;SDS_P2;PMS_P1;PMS_P2;Temp;Humidity;BMP_temperature;BMP_pressure;BME280_temperature;BME280_humidity;BME280_pressure;Samples;Min_cycle;Max_cycle;Signal;HPM_P1;HPM_P2
2023/01/16 00:00:38;;;;;;;2.20;0.90;;;0.90;99.90;;;;;;4095086;29;20598;-63
2023/01/16 00:02:39;;;;;;;1.20;0.70;;;0.80;99.90;;;;;;4094917;29;20294;-62
2023/01/16 00:04:40;;;;;;;1.90;0.73;;;0.80;99.90;;;;;;4095157;29;20751;-63
2023/01/16 00:06:40;;;;;;;1.13;0.90;;;0.90;99.90;;;;;;4095188;29;20669;-63
2023/01/16 00:08:42;;;;;;;2.23;0.93;;;0.90;99.90;;;;;;4095350;29;20650;-63
2023/01/16 00:10:45;;;;;;;8.20;1.03;;;0.80;99.90;;;;;;4093750;29;20187;-63
2023/01/16 00:12:48;;;;;;;2.73;0.70;;;0.70;99.90;;;;;;4093622;29;20459;-62
2023/01/16 00:14:49;;;;;;;1.90;0.80;;;0.70;99.90;;;;;;4094239;29;20436;-62
2023/01/16 00:16:49;;;;;;;2.03;0.80;;;0.70;99.90;;;;;;4095180;29;20477;-65
2023/01/16 00:18:50;;;;;;;1.67;1.40;;;0.70;99.90;;;;;;4095323;29;20182;-64
2023/01/16 00:20:51;;;;;;;1.93;1.20;;;0.60;99.90;;;;;;4138939;28;20301;-63
2023/01/16 00:22:51;;;;;;;3.53;0.80;;;0.60;99.90;;;;;;4178157;28;20223;-63
2023/01/16 00:24:52;;;;;;;3.07;0.80;;;0.60;99.90;;;;;;4178493;28;20833;-63
2023/01/16 00:26:53;;;;;;;1.20;0.70;;;0.50;99.90;;;;;;4177818;28;20224;-62
2023/01/16 00:28:54;;;;;;;2.77;0.80;;;0.60;99.90;;;;;;4178284;28;20184;-62
2023/01/16 00:30:54;;;;;;;3.33;0.70;;;0.70;99.90;;;;;;4177953;28;20180;-63
2023/01/16 00:32:55;;;;;;;2.13;0.70;;;0.70;99.90;;;;;;4160768;28;20805;-63
2023/01/16 00:34:56;;;;;;;1.83;0.70;;;0.60;99.90;;;;;;4178472;28;20611;-62
2023/01/16 00:36:56;;;;;;;1.30;0.73;;;0.60;99.90;;;;;;4178421;28;20628;-64
2023/01/16 00:38:57;;;;;;;3.07;0.77;;;0.60;99.90;;;;;;4177709;28;20734;-64
2023/01/16 00:40:58;;;;;;;2.77;0.90;;;0.60;99.90;;;;;;4177990;28;20570;-63
2023/01/16 00:42:58;;;;;;;5.13;0.90;;;0.60;99.90;;;;;;4160341;28;20220;-63
2023/01/16 00:44:59;;;;;;;1.40;0.70;;;0.60;99.90;;;;;;4177786;28;20177;-64
2023/01/16 00:47:00;;;;;;;2.07;0.70;;;0.50;99.90;;;;;;4177919;28;20566;-62
2023/01/16 00:49:00;;;;;;;0.60;0.60;;;0.60;99.90;;;;;;4178099;28;20238;-63
2023/01/16 00:51:01;;;;;;;1.20;0.93;;;0.50;99.90;;;;;;4178197;28;20176;-63
2023/01/16 00:53:02;;;;;;;1.77;1.00;;;0.50;99.90;;;;;;4178447;28;20189;-63
2023/01/16 00:55:03;;;;;;;2.73;0.80;;;0.50;99.90;;;;;;4178033;28;20209;-64
2023/01/16 00:57:04;;;;;;;5.17;1.00;;;0.60;99.90;;;;;;4160406;28;20312;-64
2023/01/16 00:59:05;;;;;;;1.93;0.80;;;0.60;99.90;;;;;;4185821;28;20434;-63
2023/01/16 01:01:06;;;;;;;1.50;0.70;;;0.60;99.90;;;;;;4183094;28;20833;-64
2023/01/16 01:03:06;;;;;;;1.77;0.77;;;0.60;99.90;;;;;;4178516;28;20184;-63
2023/01/16 01:05:07;;;;;;;0.83;0.70;;;0.60;99.90;;;;;;4181508;28;20416;-63
2023/01/16 01:07:08;;;;;;;5.13;0.90;;;0.70;99.90;;;;;;4181608;28;20202;-62
2023/01/16 01:09:09;;;;;;;3.37;0.80;;;0.80;99.90;;;;;;4161058;28;20462;-63
2023/01/16 01:11:13;;;;;;;8.50;2.90;;;0.90;99.90;;;;;;4165273;28;20184;-63
2023/01/16 01:13:14;;;;;;;2.47;0.90;;;1.00;99.90;;;;;;4164943;28;20577;-64
2023/01/16 01:15:14;;;;;;;1.67;0.90;;;1.10;99.90;;;;;;4164995;28;20422;-64
2023/01/16 01:17:15;;;;;;;1.80;0.70;;;1.10;99.90;;;;;;4164328;28;20214;-64
2023/01/16 01:19:16;;;;;;;1.40;0.70;;;1.10;99.90;;;;;;4164103;28;20211;-64
2023/01/16 01:21:17;;;;;;;2.13;0.70;;;1.10;99.90;;;;;;4146550;28;20242;-63
2023/01/16 01:23:17;;;;;;;4.43;0.90;;;1.10;99.90;;;;;;4164005;28;20500;-64
2023/01/16 01:25:18;;;;;;;3.07;0.70;;;1.10;99.90;;;;;;4164089;28;20174;-64
2023/01/16 01:27:19;;;;;;;3.17;0.70;;;1.00;99.90;;;;;;4164011;28;20210;-64
2023/01/16 01:29:20;;;;;;;0.70;0.70;;;1.00;99.90;;;;;;4164013;28;20273;-64
2023/01/16 01:31:20;;;;;;;2.67;1.10;;;1.00;99.90;;;;;;4164047;28;20693;-64
2023/01/16 01:33:21;;;;;;;1.37;0.50;;;1.00;99.90;;;;;;4163989;28;20189;-64
2023/01/16 01:35:22;;;;;;;3.73;0.70;;;1.00;99.90;;;;;;4164102;28;20830;-63
2023/01/16 01:37:22;;;;;;;2.93;0.73;;;1.00;99.90;;;;;;4164384;28;20216;-63
2023/01/16 01:39:23;;;;;;;2.27;1.50;;;0.90;99.90;;;;;;4135393;28;20186;-64
2023/01/16 01:41:23;;;;;;;2.47;0.80;;;0.90;99.90;;;;;;4096547;29;20737;-64
2023/01/16 01:43:44;;;;;;;0.90;0.77;;;1.00;99.90;;;;;;4079740;29;20768;-64
2023/01/16 01:45:55;;;;;;;1.70;0.73;;;0.90;99.90;;;;;;4096608;29;20189;-63
2023/01/16 01:48:20;;;;;;;3.23;0.80;;;0.80;99.90;;;;;;4096433;29;20514;-63
2023/01/16 01:50:48;;;;;;;2.67;0.70;;;0.90;99.90;;;;;;4063491;29;20440;-64
2023/01/16 01:52:50;;;;;;;1.67;0.60;;;0.90;99.90;;;;;;4095498;28;20826;-64
2023/01/16 01:54:57;;;;;;;4.07;0.80;;;0.90;99.90;;;;;;4096781;29;20427;-64
2023/01/16 01:57:09;;;;;;;1.67;0.70;;;0.90;99.90;;;;;;4079813;29;20441;-64
2023/01/16 01:59:25;;;;;;;3.87;1.10;;;0.90;99.90;;;;;;4080103;29;20422;-64
2023/01/16 02:01:27;;;;;;;1.90;0.80;;;0.80;99.90;;;;;;4080371;29;20425;-64
2023/01/16 02:03:40;;;;;;;1.30;0.80;;;0.80;99.90;;;;;;4079948;29;20885;-63
2023/01/16 02:05:46;;;;;;;1.33;0.73;;;0.80;99.90;;;;;;4097119;29;20432;-63
2023/01/16 02:07:47;;;;;;;1.13;0.70;;;0.80;99.90;;;;;;4079810;29;20448;-64
2023/01/16 02:09:47;;;;;;;3.67;0.90;;;0.90;99.90;;;;;;4079651;29;20452;-64
2023/01/16 02:12:22;;;;;;;2.67;0.50;;;0.90;99.90;;;;;;4096420;29;20464;-63
2023/01/16 02:14:25;;;;;;;0.97;0.70;;;0.80;99.90;;;;;;4094608;28;20204;-64
2023/01/16 02:21:35;;;;;;;0.80;0.50;;;1.10;99.90;;;;;;4096138;29;20466;-64
2023/01/16 02:24:04;;;;;;;2.73;0.80;;;1.10;99.90;;;;;;4096139;29;20589;-64
2023/01/16 02:26:53;;;;;;;3.13;0.90;;;1.20;99.90;;;;;;4079108;29;20428;-63
2023/01/16 02:29:08;;;;;;;1.30;0.80;;;1.30;99.90;;;;;;4079408;29;20431;-63
2023/01/16 02:31:18;;;;;;;0.77;0.60;;;1.40;99.90;;;;;;4095398;29;20503;-62
2023/01/16 02:33:51;;;;;;;1.30;0.60;;;1.40;99.90;;;;;;4096551;29;20433;-63
2023/01/16 02:36:44;;;;;;;2.50;0.70;;;1.30;99.90;;;;;;4079662;28;20429;-64
2023/01/16 02:39:06;;;;;;;4.20;0.70;;;1.40;99.90;;;;;;4094992;29;20427;-64
2023/01/16 02:41:23;;;;;;;1.20;0.67;;;1.50;99.90;;;;;;4096094;29;20468;-63
2023/01/16 02:43:54;;;;;;;4.23;0.90;;;1.60;99.90;;;;;;4079032;29;20420;-63
2023/01/16 02:46:09;;;;;;;1.57;1.20;;;1.30;99.90;;;;;;4096142;29;20427;-64
2023/01/16 02:48:25;;;;;;;4.07;1.37;;;0.90;99.90;;;;;;4095815;29;20543;-63
2023/01/16 02:50:51;;;;;;;1.57;1.07;;;0.60;99.90;;;;;;4078913;28;20422;-64
2023/01/16 02:53:10;;;;;;;1.90;1.27;;;0.50;99.90;;;;;;4094577;29;20502;-63
2023/01/16 02:55:24;;;;;;;3.53;1.80;;;0.40;99.90;;;;;;4079212;29;20439;-63
2023/01/16 02:57:33;;;;;;;5.53;2.27;;;0.20;99.90;;;;;;4078218;29;20452;-62
2023/01/16 02:59:34;;;;;;;2.30;1.80;;;0.20;99.90;;;;;;4101483;29;20423;-63
2023/01/16 03:01:36;;;;;;;7.53;1.93;;;0.20;99.90;;;;;;4085312;29;20522;-63
2023/01/16 03:03:50;;;;;;;2.17;1.43;;;0.20;99.90;;;;;;4097558;29;20202;-62
2023/01/16 03:05:54;;;;;;;2.80;1.40;;;0.30;99.90;;;;;;4094382;28;20446;-63
2023/01/16 03:08:28;;;;;;;1.67;1.40;;;0.30;99.90;;;;;;4124109;28;20444;-64
2023/01/16 03:10:51;;;;;;;2.93;1.70;;;0.20;99.90;;;;;;4078079;29;20432;-64
2023/01/16 03:13:21;;;;;;;2.60;1.77;;;0.20;99.90;;;;;;4094128;29;20431;-63
2023/01/16 03:15:49;;;;;;;2.20;1.30;;;0.10;99.90;;;;;;4078338;29;20480;-64
2023/01/16 03:18:32;;;;;;;4.10;1.27;;;0.10;99.90;;;;;;4095596;28;20443;-64
2023/01/16 03:21:05;;;;;;;2.63;1.60;;;0.10;99.90;;;;;;4095018;29;20472;-63
2023/01/16 03:23:14;;;;;;;3.83;1.47;;;0.00;99.90;;;;;;4062510;29;20432;-63
2023/01/16 03:25:34;;;;;;;3.67;1.17;;;0.10;99.90;;;;;;4095801;28;20428;-63
2023/01/16 03:27:35;;;;;;;2.90;1.80;;;0.10;99.90;;;;;;4095392;28;20451;-64
2023/01/16 03:29:50;;;;;;;2.87;1.33;;;0.10;99.90;;;;;;4095930;29;20981;-64
2023/01/16 03:32:06;;;;;;;4.47;1.33;;;0.10;99.90;;;;;;4078927;29;20196;-64
2023/01/16 03:34:28;;;;;;;2.63;1.30;;;0.10;99.90;;;;;;4078256;29;20495;-64
2023/01/16 03:37:06;;;;;;;1.27;0.97;;;0.20;99.90;;;;;;4095359;29;20966;-64
2023/01/16 03:39:10;;;;;;;2.50;0.90;;;0.20;99.90;;;;;;4046559;29;20522;-64
2023/01/16 03:41:15;;;;;;;2.03;1.13;;;0.20;99.90;;;;;;4078504;29;20473;-64
2023/01/16 03:43:37;;;;;;;3.83;1.30;;;0.20;99.90;;;;;;4078454;29;20519;-63
2023/01/16 03:46:15;;;;;;;3.93;1.10;;;0.30;99.90;;;;;;4135988;28;20520;-64
2023/01/16 03:48:21;;;;;;;1.03;0.80;;;0.30;99.90;;;;;;4065469;29;21169;-63
2023/01/16 03:50:25;;;;;;;1.03;0.87;;;0.30;99.90;;;;;;4081654;29;20471;-63
2023/01/16 03:52:36;;;;;;;3.30;0.80;;;0.40;99.90;;;;;;4082848;29;20436;-63
2023/01/16 03:54:52;;;;;;;1.47;1.00;;;0.40;99.90;;;;;;4081843;29;20431;-63
2023/01/16 03:57:18;;;;;;;3.33;1.00;;;0.40;99.90;;;;;;4083158;29;20464;-64
2023/01/16 03:59:19;;;;;;;3.87;1.03;;;0.40;99.90;;;;;;4082461;29;20927;-63
2023/01/16 04:01:54;;;;;;;1.10;0.80;;;0.30;99.90;;;;;;4066278;29;20477;-63
2023/01/16 04:04:09;;;;;;;0.80;0.80;;;0.30;99.90;;;;;;4082003;29;20201;-62
2023/01/16 04:06:45;;;;;;;2.40;1.03;;;0.20;99.90;;;;;;4066016;29;20440;-68
2023/01/16 04:08:47;;;;;;;1.13;1.00;;;0.20;99.90;;;;;;4081594;29;20523;-64
2023/01/16 04:10:51;;;;;;;2.07;0.90;;;0.20;99.90;;;;;;4082005;29;20488;-64
2023/01/16 04:13:02;;;;;;;1.43;1.00;;;0.20;99.90;;;;;;4083194;29;20430;-64
2023/01/16 04:15:07;;;;;;;4.77;1.00;;;0.10;99.90;;;;;;4082888;29;20432;-64
2023/01/16 04:17:09;;;;;;;1.10;0.90;;;0.00;99.90;;;;;;4083506;29;20452;-63
2023/01/16 04:19:13;;;;;;;2.83;0.93;;;-0.10;99.90;;;;;;4084021;29;20464;-63
2023/01/16 04:21:14;;;;;;;3.43;1.00;;;-0.20;99.90;;;;;;4084800;29;20570;-63
2023/01/16 04:23:16;;;;;;;1.30;1.20;;;-0.20;99.90;;;;;;4084955;28;20802;-64
2023/01/16 04:25:18;;;;;;;2.43;1.63;;;-0.20;99.90;;;;;;4084372;29;20245;-63
2023/01/16 04:27:19;;;;;;;3.00;1.00;;;-0.10;99.90;;;;;;4083939;29;20444;-64
2023/01/16 04:29:20;;;;;;;3.37;0.90;;;-0.10;99.90;;;;;;4083407;29;20432;-63
2023/01/16 04:31:23;;;;;;;2.47;1.17;;;-0.10;99.90;;;;;;4083258;28;20471;-64
2023/01/16 04:33:24;;;;;;;2.23;0.97;;;-0.20;99.90;;;;;;4083769;29;20206;-63
2023/01/16 04:35:25;;;;;;;4.20;1.00;;;-0.20;99.90;;;;;;4083483;29;20431;-66
2023/01/16 04:37:25;;;;;;;3.00;1.53;;;-0.20;99.90;;;;;;4083463;29;20233;-63
2023/01/16 04:39:26;;;;;;;1.60;1.03;;;-0.20;99.90;;;;;;4083470;29;20284;-63
2023/01/16 04:41:35;;;;;;;4.70;1.93;;;-0.20;99.90;;;;;;4086503;29;20725;-63
2023/01/16 04:43:36;;;;;;;1.27;0.87;;;-0.20;99.90;;;;;;4083193;29;20229;-64
2023/01/16 04:45:39;;;;;;;3.47;1.67;;;-0.30;99.90;;;;;;4081990;29;20511;-64
2023/01/16 04:47:40;;;;;;;2.83;0.97;;;-0.30;99.90;;;;;;4082059;29;20211;-64
2023/01/16 04:49:40;;;;;;;2.70;1.30;;;-0.30;99.90;;;;;;4081484;29;20432;-64
2023/01/16 04:51:41;;;;;;;1.40;1.10;;;-0.30;99.90;;;;;;4064400;29;20240;-64
2023/01/16 04:53:42;;;;;;;3.03;1.27;;;-0.40;99.90;;;;;;4080366;29;20191;-64
2023/01/16 04:55:43;;;;;;;4.57;1.83;;;-0.40;99.90;;;;;;4081779;29;20519;-64
2023/01/16 04:57:43;;;;;;;2.83;1.30;;;-0.40;99.90;;;;;;4082330;29;20205;-65
2023/01/16 04:59:44;;;;;;;4.07;1.60;;;-0.50;99.90;;;;;;4086706;29;20192;-63
2023/01/16 05:01:45;;;;;;;1.67;1.23;;;-0.40;99.90;;;;;;4091086;28;20219;-64
2023/01/16 05:03:46;;;;;;;3.60;1.37;;;-0.50;99.90;;;;;;4080690;29;20715;-64
2023/01/16 05:05:47;;;;;;;2.73;1.67;;;-0.50;99.90;;;;;;4080385;29;20432;-64
2023/01/16 05:08:15;;;;;;;5.80;1.93;;;-0.40;99.90;;;;;;4097383;29;20785;-64
2023/01/16 05:10:11;;;;;;;3.20;1.80;;;-0.40;99.90;;;;;;4123667;28;20247;-64
2023/01/16 05:12:11;;;;;;;7.93;2.27;;;-0.40;99.90;;;;;;4164856;28;20428;-64
2023/01/16 05:14:12;;;;;;;4.50;1.57;;;-0.60;99.90;;;;;;4164910;28;20180;-63
2023/01/16 05:16:13;;;;;;;5.17;1.90;;;-0.50;99.90;;;;;;4164601;28;20190;-64
2023/01/16 05:18:14;;;;;;;2.93;1.80;;;-0.50;99.90;;;;;;4164322;28;20188;-64
2023/01/16 05:20:14;;;;;;;2.70;1.63;;;-0.50;99.90;;;;;;4164340;28;20213;-62
2023/01/16 05:22:15;;;;;;;2.40;1.33;;;-0.60;99.90;;;;;;4164696;28;20199;-64
2023/01/16 05:24:16;;;;;;;4.67;1.40;;;-0.50;99.90;;;;;;4164324;28;20189;-64
2023/01/16 05:26:16;;;;;;;2.93;1.37;;;-0.50;99.90;;;;;;4164028;28;20181;-63
2023/01/16 05:28:17;;;;;;;3.83;1.97;;;-0.50;99.90;;;;;;4164216;28;20267;-63
2023/01/16 05:30:18;;;;;;;3.27;2.23;;;-0.50;99.90;;;;;;4163990;28;20196;-65
2023/01/16 05:32:18;;;;;;;2.90;1.87;;;-0.50;99.90;;;;;;4164225;28;20223;-63
2023/01/16 05:34:19;;;;;;;1.90;1.70;;;-0.60;99.90;;;;;;4164303;28;20186;-64
2023/01/16 05:36:20;;;;;;;3.17;1.80;;;-0.60;99.90;;;;;;4164278;28;20208;-64
2023/01/16 05:38:21;;;;;;;3.37;1.80;;;-0.60;99.90;;;;;;4164471;28;20244;-64
2023/01/16 05:40:22;;;;;;;2.97;1.67;;;-0.60;99.90;;;;;;4164251;28;20208;-64
2023/01/16 05:42:24;;;;;;;4.03;2.50;;;-0.70;99.90;;;;;;4164015;28;20746;-64
2023/01/16 05:44:25;;;;;;;3.43;2.50;;;-0.80;99.90;;;;;;4163655;28;20181;-63
2023/01/16 05:46:25;;;;;;;3.40;1.97;;;-0.90;99.90;;;;;;4163713;28;20503;-64
2023/01/16 05:48:28;;;;;;;4.00;2.93;;;-0.90;99.90;;;;;;4163305;28;20188;-64
2023/01/16 05:50:28;;;;;;;5.57;2.70;;;-0.90;99.90;;;;;;4119635;28;20207;-64
2023/01/16 05:52:29;;;;;;;3.40;2.17;;;-0.90;99.90;;;;;;4096301;29;20935;-63
2023/01/16 05:54:30;;;;;;;3.03;2.40;;;-0.90;99.90;;;;;;4096460;29;20621;-63
2023/01/16 05:56:30;;;;;;;3.40;2.50;;;-0.90;99.90;;;;;;4096520;29;20210;-64
2023/01/16 05:58:31;;;;;;;4.00;2.67;;;-0.90;99.90;;;;;;4096572;29;20192;-65
2023/01/16 06:00:32;;;;;;;4.00;2.80;;;-0.90;99.90;;;;;;4079499;29;20224;-63
2023/01/16 06:02:32;;;;;;;5.57;3.13;;;-0.90;99.90;;;;;;4096526;29;20207;-64
2023/01/16 06:04:33;;;;;;;4.90;3.23;;;-0.90;99.90;;;;;;4079879;29;20192;-64
2023/01/16 06:06:34;;;;;;;10.27;3.20;;;-0.90;99.90;;;;;;4096412;29;20207;-62
2023/01/16 06:08:34;;;;;;;7.60;3.60;;;-1.00;99.90;;;;;;4096405;29;20643;-62
2023/01/16 06:10:35;;;;;;;5.27;3.60;;;-1.00;99.90;;;;;;4096307;29;20242;-63
2023/01/16 06:12:36;;;;;;;4.60;3.50;;;-1.00;99.90;;;;;;4079300;29;20203;-62
2023/01/16 06:14:37;;;;;;;5.87;3.57;;;-1.00;99.90;;;;;;4096159;29;20187;-63
2023/01/16 06:16:37;;;;;;;7.87;4.13;;;-1.00;99.90;;;;;;4096487;29;20204;-63
2023/01/16 06:18:38;;;;;;;7.73;3.87;;;-0.90;99.90;;;;;;4096463;29;20194;-63
2023/01/16 06:20:39;;;;;;;4.47;3.37;;;-0.80;99.90;;;;;;4079392;29;20231;-63
2023/01/16 06:22:39;;;;;;;7.60;4.83;;;-0.80;99.90;;;;;;4096419;29;20183;-63
2023/01/16 06:24:40;;;;;;;8.37;4.20;;;-0.70;99.90;;;;;;4096277;29;20231;-63
2023/01/16 06:26:41;;;;;;;5.30;4.33;;;-0.60;99.90;;;;;;4096093;29;20207;-63
2023/01/16 06:28:42;;;;;;;6.70;4.83;;;-0.50;99.90;;;;;;4096034;29;20275;-63
2023/01/16 06:30:42;;;;;;;5.97;4.30;;;-0.60;99.90;;;;;;4078773;29;21059;-63
2023/01/16 06:32:44;;;;;;;8.67;4.77;;;-0.60;99.90;;;;;;4094535;29;20191;-63
2023/01/16 06:34:44;;;;;;;8.50;4.30;;;-0.70;99.90;;;;;;4096503;29;20682;-63
2023/01/16 06:36:47;;;;;;;6.10;3.37;;;-0.60;99.90;;;;;;4096092;29;20470;-63
2023/01/16 06:38:48;;;;;;;6.93;4.33;;;-0.60;99.90;;;;;;4078709;29;20192;-63
2023/01/16 06:40:49;;;;;;;6.90;4.00;;;-0.60;99.90;;;;;;4095519;29;20482;-62
2023/01/16 06:42:49;;;;;;;7.40;3.93;;;-0.60;99.90;;;;;;4095772;29;20668;-63
2023/01/16 06:44:50;;;;;;;6.40;3.77;;;-0.60;99.90;;;;;;4078642;29;20212;-63
2023/01/16 06:46:50;;;;;;;4.90;3.37;;;-0.60;99.90;;;;;;4095471;29;20212;-62
2023/01/16 06:48:51;;;;;;;4.10;3.43;;;-0.60;99.90;;;;;;4095911;29;20236;-63
2023/01/16 06:50:53;;;;;;;4.73;3.40;;;-0.60;99.90;;;;;;4095939;29;20203;-63
2023/01/16 06:52:54;;;;;;;6.67;3.17;;;-0.60;99.90;;;;;;4095805;29;20227;-62
2023/01/16 06:54:55;;;;;;;4.93;3.50;;;-0.60;99.90;;;;;;4096001;29;20442;-63
2023/01/16 06:56:56;;;;;;;4.33;3.17;;;-0.50;99.90;;;;;;4096043;28;20239;-63
2023/01/16 06:58:57;;;;;;;4.97;3.87;;;-0.50;99.90;;;;;;4095778;29;20920;-63
2023/01/16 07:00:57;;;;;;;5.83;3.70;;;-0.50;99.90;;;;;;4099772;29;20216;-62
2023/01/16 07:02:58;;;;;;;4.17;3.10;;;-0.50;99.90;;;;;;4099345;29;20556;-63
2023/01/16 07:04:58;;;;;;;6.63;3.43;;;-0.50;99.90;;;;;;4095588;29;20254;-63
2023/01/16 07:06:59;;;;;;;5.67;3.70;;;-0.50;99.90;;;;;;4088899;28;20208;-62
2023/01/16 07:09:00;;;;;;;5.73;3.50;;;-0.50;99.90;;;;;;4087701;28;20186;-63
2023/01/16 07:11:01;;;;;;;5.43;3.23;;;-0.50;99.90;;;;;;4084433;29;20184;-63
2023/01/16 07:13:02;;;;;;;5.23;3.10;;;-0.50;99.90;;;;;;4079603;28;20245;-63
2023/01/16 07:24:25;;;;;;;4.23;3.00;;;-0.40;99.90;;;;;;4078619;29;20878;-64
2023/01/16 07:26:27;;;;;;;4.10;2.93;;;-0.50;99.90;;;;;;4062393;29;20449;-64
2023/01/16 07:28:28;;;;;;;3.97;2.80;;;-0.50;99.90;;;;;;4079605;29;20455;-62
2023/01/16 07:30:32;;;;;;;4.13;2.90;;;-0.40;99.90;;;;;;4062825;29;21021;-64
2023/01/16 07:32:32;;;;;;;3.30;2.60;;;-0.40;99.90;;;;;;4079795;29;20817;-63
2023/01/16 07:34:34;;;;;;;4.33;2.87;;;-0.40;99.90;;;;;;4079213;29;20441;-63
2023/01/16 07:36:35;;;;;;;3.87;2.80;;;-0.40;99.90;;;;;;4079614;29;20322;-64
2023/01/16 07:38:36;;;;;;;3.80;2.40;;;-0.50;99.90;;;;;;4062515;29;20485;-63
2023/01/16 07:40:36;;;;;;;4.50;2.37;;;-0.40;99.90;;;;;;4046765;29;20311;-64
2023/01/16 07:42:37;;;;;;;6.90;3.63;;;-0.40;99.90;;;;;;4079376;29;20188;-63
2023/01/16 07:44:38;;;;;;;7.30;4.20;;;-0.40;99.90;;;;;;4079623;29;20184;-63
2023/01/16 07:46:38;;;;;;;5.73;4.37;;;-0.40;99.90;;;;;;4079180;29;20262;-64
2023/01/16 07:48:39;;;;;;;4.87;2.30;;;-0.30;99.90;;;;;;4079056;29;20181;-64
2023/01/16 07:50:40;;;;;;;3.13;2.43;;;-0.30;99.90;;;;;;4079368;29;20193;-63
2023/01/16 07:52:43;;;;;;;2.73;2.30;;;-0.20;99.90;;;;;;4079528;29;20184;-63
2023/01/16 07:54:44;;;;;;;4.57;2.60;;;-0.20;99.90;;;;;;4102799;28;20188;-62
2023/01/16 07:56:44;;;;;;;4.83;3.03;;;-0.20;99.90;;;;;;4094695;29;21009;-62
2023/01/16 07:58:46;;;;;;;3.73;2.20;;;-0.10;99.90;;;;;;4095009;29;20199;-64
2023/01/16 08:00:47;;;;;;;4.47;1.90;;;-0.10;99.90;;;;;;4095063;29;20672;-63
2023/01/16 08:02:49;;;;;;;5.03;3.30;;;0.00;99.90;;;;;;4095142;29;20431;-63
2023/01/16 08:04:49;;;;;;;2.83;2.23;;;0.10;99.90;;;;;;4095042;29;20434;-62
2023/01/16 08:06:50;;;;;;;3.90;2.67;;;0.10;99.90;;;;;;4095120;29;20451;-61
2023/01/16 08:08:51;;;;;;;3.27;2.20;;;0.10;99.90;;;;;;4095087;29;20195;-61
2023/01/16 08:10:56;;;;;;;1.50;1.30;;;0.20;99.90;;;;;;4095074;29;20200;-64
2023/01/16 08:12:57;;;;;;;1.93;1.20;;;0.10;99.90;;;;;;4096557;28;20195;-62
2023/01/16 08:14:58;;;;;;;1.70;1.33;;;0.20;99.90;;;;;;4079934;29;21095;-62
2023/01/16 08:16:58;;;;;;;1.87;1.43;;;0.30;99.90;;;;;;4097484;29;20217;-63
2023/01/16 08:18:59;;;;;;;3.77;1.30;;;0.30;99.90;;;;;;4097505;29;20191;-65
2023/01/16 08:21:00;;;;;;;1.47;1.20;;;0.30;99.90;;;;;;4097375;29;20215;-62
2023/01/16 08:23:01;;;;;;;1.30;1.20;;;0.30;99.90;;;;;;4097836;29;20607;-62
2023/01/16 08:25:01;;;;;;;3.87;1.20;;;0.40;99.90;;;;;;4097971;29;20656;-64
2023/01/16 08:27:02;;;;;;;2.57;1.30;;;0.40;99.90;;;;;;4098046;29;20223;-64
2023/01/16 08:29:03;;;;;;;3.13;1.37;;;0.50;99.90;;;;;;4097405;29;20605;-61
2023/01/16 08:31:11;;;;;;;1.20;1.10;;;0.50;99.90;;;;;;4097361;29;20224;-64
2023/01/16 08:33:12;;;;;;;2.83;1.10;;;0.60;99.90;;;;;;4096196;29;20263;-61
2023/01/16 08:35:12;;;;;;;1.27;1.10;;;0.60;99.90;;;;;;4097092;29;20856;-62
2023/01/16 08:37:14;;;;;;;1.57;1.13;;;0.60;99.90;;;;;;4097287;29;20895;-64
2023/01/16 08:39:15;;;;;;;3.53;1.10;;;0.60;99.90;;;;;;4097190;29;20218;-61
2023/01/16 08:53:05;;;;;;;2.43;1.40;;;0.80;99.90;;;;;;4082868;29;20525;-64
2023/01/16 08:55:07;;;;;;;1.53;1.43;;;0.90;99.90;;;;;;4095647;29;20975;-64
2023/01/16 08:57:09;;;;;;;4.07;1.60;;;0.90;99.90;;;;;;4079850;28;20466;-63
2023/01/16 08:59:10;;;;;;;1.60;1.20;;;0.80;99.90;;;;;;4098836;29;20445;-63
2023/01/16 09:01:11;;;;;;;1.90;0.90;;;0.90;99.90;;;;;;4100289;29;20476;-64
2023/01/16 09:03:11;;;;;;;1.47;1.10;;;1.00;99.90;;;;;;4097074;29;20454;-62
2023/01/16 09:05:13;;;;;;;4.07;1.70;;;1.10;99.90;;;;;;4101257;28;20642;-63
2023/01/16 09:07:15;;;;;;;1.20;1.10;;;1.10;99.90;;;;;;4141139;28;20220;-63
2023/01/16 09:09:15;;;;;;;1.30;1.13;;;1.10;99.90;;;;;;4164233;28;20433;-63
2023/01/16 09:13:50;;;;;;;1.10;1.00;;;1.10;99.90;;;;;;4148991;28;20205;-64
2023/01/16 09:15:51;;;;;;;1.10;1.00;;;1.20;99.90;;;;;;4164164;28;20433;-64
2023/01/16 09:17:51;;;;;;;1.30;1.03;;;1.20;99.90;;;;;;4164612;28;20532;-63
2023/01/16 09:19:52;;;;;;;1.73;1.13;;;1.10;99.90;;;;;;4164196;28;20278;-63
2023/01/16 09:21:53;;;;;;;1.10;1.00;;;1.10;99.90;;;;;;4164824;28;20273;-63
2023/01/16 09:23:54;;;;;;;2.87;1.23;;;1.20;99.90;;;;;;4163640;28;20534;-63
2023/01/16 09:25:54;;;;;;;1.47;1.10;;;1.20;99.90;;;;;;4164432;28;20248;-63
2023/01/16 09:27:55;;;;;;;1.53;1.10;;;1.20;99.90;;;;;;4164359;28;20194;-63
2023/01/16 09:29:55;;;;;;;2.60;1.10;;;1.20;99.90;;;;;;4164210;28;20181;-63
2023/01/16 09:31:57;;;;;;;1.07;0.97;;;1.20;99.90;;;;;;4146394;28;20179;-62
2023/01/16 09:33:58;;;;;;;3.40;1.37;;;1.20;99.90;;;;;;4163846;28;20195;-63
2023/01/16 09:35:58;;;;;;;1.67;1.20;;;1.20;99.90;;;;;;4146419;28;20940;-63
2023/01/16 09:37:59;;;;;;;1.97;1.20;;;1.20;99.90;;;;;;4146566;28;20307;-63
2023/01/16 09:40:00;;;;;;;1.40;1.10;;;1.30;99.90;;;;;;4146117;28;20656;-63
2023/01/16 09:45:22;;;;;;;2.17;1.27;;;1.40;99.90;;;;;;4148624;28;20199;-63
2023/01/16 09:47:24;;;;;;;2.70;1.20;;;1.30;99.90;;;;;;4145948;28;20464;-63
2023/01/16 09:49:32;;;;;;;2.47;0.97;;;1.30;99.90;;;;;;4163841;28;20429;-63
2023/01/16 09:51:39;;;;;;;1.20;0.80;;;1.30;99.90;;;;;;4146206;28;20993;-63
2023/01/16 09:59:21;;;;;;;2.40;1.23;;;1.20;99.90;;;;;;4148293;28;20501;-63
2023/01/16 10:01:31;;;;;;;3.27;1.10;;;1.30;99.90;;;;;;4145737;28;20515;-62
2023/01/16 10:03:34;;;;;;;1.37;1.03;;;1.30;99.90;;;;;;4126972;28;20441;-63
2023/01/16 10:06:13;;;;;;;0.93;0.73;;;1.40;99.90;;;;;;4090499;28;20520;-64
2023/01/16 10:08:43;;;;;;;2.03;1.30;;;1.40;99.90;;;;;;4096719;29;20529;-63
2023/01/16 10:11:01;;;;;;;1.50;1.40;;;1.50;99.90;;;;;;4079302;29;20467;-63
2023/01/16 10:13:29;;;;;;;2.93;0.90;;;1.50;99.90;;;;;;4096564;29;20443;-63
2023/01/16 10:15:46;;;;;;;0.50;0.50;;;1.50;99.90;;;;;;4096707;28;20430;-64
2023/01/16 10:18:19;;;;;;;1.00;0.90;;;1.60;99.90;;;;;;4096178;29;20973;-63
2023/01/16 10:20:42;;;;;;;0.77;0.77;;;1.60;99.90;;;;;;4079368;29;20539;-63
2023/01/16 10:23:32;;;;;;;1.07;0.97;;;1.60;99.90;;;;;;4096426;29;20481;-63
2023/01/16 10:25:54;;;;;;;1.40;0.90;;;1.50;99.90;;;;;;4078923;29;20423;-64
2023/01/16 10:28:52;;;;;;;0.70;0.70;;;1.50;99.90;;;;;;4096272;29;20444;-63
2023/01/16 10:31:05;;;;;;;2.60;1.00;;;1.50;99.90;;;;;;4079340;29;20486;-64
2023/01/16 10:33:53;;;;;;;2.00;0.83;;;1.50;99.90;;;;;;4096020;29;20426;-63
2023/01/16 10:35:56;;;;;;;1.40;0.80;;;1.50;99.90;;;;;;4079585;28;20434;-63
2023/01/16 10:38:13;;;;;;;0.70;0.70;;;1.40;99.90;;;;;;4078996;28;20495;-64
2023/01/16 10:40:26;;;;;;;1.27;1.03;;;1.40;99.90;;;;;;4096079;29;20481;-63
2023/01/16 10:49:49;;;;;;;1.20;1.00;;;1.40;99.90;;;;;;4081510;29;20419;-64
2023/01/16 10:51:50;;;;;;;2.23;1.20;;;1.50;99.90;;;;;;4079075;28;20806;-63
2023/01/16 10:53:51;;;;;;;3.10;2.13;;;1.60;99.90;;;;;;4095856;29;20230;-64
2023/01/16 10:55:53;;;;;;;2.07;1.47;;;1.60;99.90;;;;;;4078650;29;20925;-64
2023/01/16 10:57:58;;;;;;;3.43;1.77;;;1.50;99.90;;;;;;4079648;29;20265;-63
2023/01/16 11:00:10;;;;;;;1.77;1.10;;;1.40;99.90;;;;;;4082071;29;20436;-63
2023/01/16 11:02:43;;;;;;;2.43;1.03;;;1.50;99.90;;;;;;4078942;29;20528;-64
2023/01/16 11:04:43;;;;;;;3.87;2.10;;;1.40;99.90;;;;;;4096155;29;20935;-64
2023/01/16 11:06:45;;;;;;;2.90;1.67;;;1.40;99.90;;;;;;4096025;29;20452;-64
2023/01/16 11:09:14;;;;;;;1.93;1.50;;;1.40;99.90;;;;;;4080179;29;20214;-64
2023/01/16 11:18:36;;;;;;;3.20;1.80;;;1.50;99.90;;;;;;4079969;29;20475;-63
2023/01/16 11:20:38;;;;;;;1.57;1.30;;;1.50;99.90;;;;;;4078089;29;20625;-62
2023/01/16 11:22:40;;;;;;;2.13;1.33;;;1.50;99.90;;;;;;4062267;29;21020;-63
2023/01/16 11:24:44;;;;;;;1.57;1.20;;;1.60;99.90;;;;;;4079267;29;20433;-63
2023/01/16 11:26:57;;;;;;;1.47;1.10;;;1.60;99.90;;;;;;4079591;29;20450;-63
2023/01/16 11:28:59;;;;;;;2.13;1.63;;;1.80;99.90;;;;;;4062619;29;20893;-63
2023/01/16 11:31:31;;;;;;;3.40;1.17;;;1.80;99.90;;;;;;4078220;29;20466;-63
2023/01/16 11:33:41;;;;;;;1.50;1.13;;;1.90;99.90;;;;;;4062765;29;20492;-63
2023/01/16 11:35:56;;;;;;;1.30;1.00;;;1.90;99.90;;;;;;4062833;29;20819;-63
2023/01/16 11:37:58;;;;;;;1.50;1.10;;;2.00;99.90;;;;;;4079771;29;20485;-63
2023/01/16 11:40:03;;;;;;;1.30;1.20;;;2.00;99.90;;;;;;4062209;29;20440;-63
2023/01/16 11:46:02;;;;;;;1.50;1.20;;;2.00;99.90;;;;;;4079030;29;20525;-63
2023/01/16 11:46:58;;;;;;;2.20;1.60;;;1.80;99.90;;;;;;4077193;29;20620;-62
2023/01/16 11:49:04;;;;;;;3.17;1.80;;;1.90;99.90;;;;;;4079188;29;20443;-63
2023/01/16 11:51:08;;;;;;;1.13;1.00;;;2.00;99.90;;;;;;4062525;29;20909;-63
2023/01/16 11:53:09;;;;;;;2.27;1.10;;;1.90;99.90;;;;;;4094135;29;20438;-63
2023/01/16 11:55:14;;;;;;;3.53;2.47;;;1.90;99.90;;;;;;4084489;28;20439;-63
2023/01/16 11:57:18;;;;;;;4.80;2.67;;;2.00;99.90;;;;;;4165419;28;20462;-63